Wetterdaten: Woche 16.12.13 - 22.12.13 (KW51)
Datum Zeit Temp. Aussen +5cm Feuchte Auss Luftdruck Regen Sonnenschein Regendauer UV Solar Windben
16.12.2013 00:00 4,4 C 2,8 C 84 % 1025,1 hPa 0,0 l/m 0,00 h 0,00 h 0,0 UV-I 0 W/m 12,3 km/h (3 Bft)
16.12.2013 01:00 4,2 C 2,8 C 85 % 1025,1 hPa 0,0 l/m 0,00 h 0,00 h 0,0 UV-I 0 W/m 11,6 km/h (2 Bft)
16.12.2013 02:00 4,1 C 2,4 C 85 % 1024,8 hPa 0,0 l/m 0,00 h 0,00 h 0,0 UV-I 0 W/m 12,9 km/h (3 Bft)
16.12.2013 03:00 3,7 C 2,0 C 85 % 1024,8 hPa 0,0 l/m 0,00 h 0,00 h 0,0 UV-I 0 W/m 14,5 km/h (3 Bft)
16.12.2013 04:00 3,3 C 1,6 C 86 % 1024,5 hPa 0,0 l/m 0,00 h 0,00 h 0,0 UV-I 0 W/m 11,6 km/h (2 Bft)
16.12.2013 05:00 2,9 C 1,2 C 88 % 1024,0 hPa 0,0 l/m 0,00 h 0,00 h 0,0 UV-I 0 W/m 9,7 km/h (2 Bft)
16.12.2013 06:00 2,7 C 1,0 C 89 % 1024,3 hPa 0,0 l/m 0,00 h 0,00 h 0,0 UV-I 0 W/m 8,3 km/h (2 Bft)
16.12.2013 07:00 2,5 C 0,8 C 90 % 1024,0 hPa 0,0 l/m 0,00 h 0,00 h 0,0 UV-I 0 W/m 6,5 km/h (2 Bft)
16.12.2013 08:00 2,5 C 0,9 C 91 % 1023,8 hPa 0,0 l/m 0,00 h 0,00 h 0,0 UV-I 10 W/m 5,0 km/h (1 Bft)
16.12.2013 09:00 3,7 C 2,7 C 93 % 1023,9 hPa 0,0 l/m 0,00 h 0,00 h 0,0 UV-I 46 W/m 7,4 km/h (2 Bft)
16.12.2013 10:00 6,0 C 4,6 C 89 % 1024,0 hPa 0,0 l/m 0,80 h 0,00 h 0,0 UV-I 112 W/m 14,1 km/h (3 Bft)
16.12.2013 11:00 7,6 C 5,8 C 82 % 1024,0 hPa 0,0 l/m 1,00 h 0,00 h 0,0 UV-I 174 W/m 16,8 km/h (3 Bft)
16.12.2013 12:00 8,5 C 7,0 C 81 % 1023,6 hPa 0,0 l/m 0,67 h 0,00 h 0,0 UV-I 153 W/m 18,0 km/h (3 Bft)
16.12.2013 13:00 9,0 C 7,8 C 79 % 1023,1 hPa 0,0 l/m 0,50 h 0,00 h 0,0 UV-I 142 W/m 17,1 km/h (3 Bft)
16.12.2013 14:00 9,5 C 7,9 C 77 % 1022,7 hPa 0,0 l/m 0,63 h 0,00 h 0,0 UV-I 131 W/m 18,7 km/h (3 Bft)
16.12.2013 15:00 8,8 C 6,9 C 77 % 1022,3 hPa 0,0 l/m 0,00 h 0,00 h 0,0 UV-I 44 W/m 15,8 km/h (3 Bft)
16.12.2013 16:00 7,9 C 5,6 C 77 % 1022,1 hPa 0,0 l/m 0,00 h 0,00 h 0,0 UV-I 9 W/m 13,4 km/h (3 Bft)
16.12.2013 17:00 7,2 C 4,9 C 78 % 1022,4 hPa 0,0 l/m 0,00 h 0,00 h 0,0 UV-I 0 W/m 14,6 km/h (3 Bft)
16.12.2013 18:00 6,5 C 4,1 C 79 % 1023,0 hPa 0,0 l/m 0,00 h 0,00 h 0,0 UV-I 0 W/m 5,0 km/h (1 Bft)
16.12.2013 19:00 6,5 C 3,9 C 77 % 1023,3 hPa 0,0 l/m 0,00 h 0,00 h 0,0 UV-I 0 W/m 4,1 km/h (1 Bft)
16.12.2013 20:00 6,4 C 4,4 C 77 % 1024,0 hPa 0,0 l/m 0,00 h 0,00 h 0,0 UV-I 0 W/m 3,9 km/h (1 Bft)
16.12.2013 21:00 6,3 C 4,7 C 79 % 1023,6 hPa 0,0 l/m 0,00 h 0,00 h 0,0 UV-I 0 W/m 11,9 km/h (2 Bft)
16.12.2013 22:00 6,3 C 4,4 C 80 % 1023,2 hPa 0,0 l/m 0,00 h 0,00 h 0,0 UV-I 0 W/m 6,6 km/h (2 Bft)
16.12.2013 23:00 6,4 C 4,9 C 81 % 1023,3 hPa 0,0 l/m 0,00 h 0,00 h 0,0 UV-I 0 W/m 9,4 km/h (2 Bft)
17.12.2013 00:00 6,4 C 4,7 C 81 % 1023,1 hPa 0,0 l/m 0,00 h 0,00 h 0,0 UV-I 0 W/m 9,5 km/h (2 Bft)
17.12.2013 01:00 5,5 C 3,5 C 82 % 1022,9 hPa 0,0 l/m 0,00 h 0,00 h 0,0 UV-I 0 W/m 13,1 km/h (3 Bft)
17.12.2013 02:00 5,0 C 3,3 C 84 % 1022,4 hPa 0,0 l/m 0,00 h 0,00 h 0,0 UV-I 0 W/m 13,5 km/h (3 Bft)
17.12.2013 03:00 4,7 C 2,8 C 84 % 1022,3 hPa 0,0 l/m 0,00 h 0,00 h 0,0 UV-I 0 W/m 5,9 km/h (2 Bft)
17.12.2013 04:00 4,3 C 2,3 C 85 % 1022,2 hPa 0,0 l/m 0,00 h 0,00 h 0,0 UV-I 0 W/m 8,3 km/h (2 Bft)
17.12.2013 05:00 3,9 C 2,2 C 87 % 1021,9 hPa 0,0 l/m 0,00 h 0,00 h 0,0 UV-I 0 W/m 8,7 km/h (2 Bft)
17.12.2013 06:00 3,5 C 1,7 C 87 % 1021,7 hPa 0,0 l/m 0,00 h 0,00 h 0,0 UV-I 0 W/m 5,5 km/h (1 Bft)
17.12.2013 07:00 3,4 C 1,7 C 87 % 1022,2 hPa 0,0 l/m 0,00 h 0,00 h 0,0 UV-I 0 W/m 3,3 km/h (1 Bft)
17.12.2013 08:00 3,4 C 1,7 C 87 % 1022,9 hPa 0,0 l/m 0,00 h 0,00 h 0,0 UV-I 10 W/m 4,6 km/h (1 Bft)
17.12.2013 09:00 3,6 C 2,5 C 88 % 1023,5 hPa 0,0 l/m 0,00 h 0,00 h 0,0 UV-I 48 W/m 3,3 km/h (1 Bft)
17.12.2013 10:00 5,1 C 4,3 C 86 % 1024,1 hPa 0,0 l/m 0,00 h 0,00 h 0,0 UV-I 73 W/m 3,8 km/h (1 Bft)
17.12.2013 11:00 6,7 C 6,0 C 83 % 1024,1 hPa 0,0 l/m 0,07 h 0,00 h 0,0 UV-I 84 W/m 3,8 km/h (1 Bft)
17.12.2013 12:00 8,2 C 7,1 C 82 % 1023,8 hPa 0,0 l/m 0,00 h 0,00 h 0,0 UV-I 90 W/m 0,5 km/h (0 Bft)
17.12.2013 13:00 9,4 C 8,0 C 79 % 1023,8 hPa 0,0 l/m 0,00 h 0,00 h 0,0 UV-I 69 W/m 1,0 km/h (0 Bft)
17.12.2013 14:00 9,6 C 7,8 C 77 % 1023,4 hPa 0,0 l/m 0,00 h 0,00 h 0,0 UV-I 36 W/m 0,0 km/h (0 Bft)
17.12.2013 15:00 9,5 C 7,1 C 79 % 1023,3 hPa 0,0 l/m 0,00 h 0,00 h 0,0 UV-I 20 W/m 0,0 km/h (0 Bft)
17.12.2013 16:00 9,0 C 6,9 C 81 % 1023,2 hPa 0,0 l/m 0,00 h 0,00 h 0,0 UV-I 7 W/m 0,0 km/h (0 Bft)
17.12.2013 17:00 8,0 C 5,0 C 83 % 1023,4 hPa 0,0 l/m 0,00 h 0,00 h 0,0 UV-I 0 W/m 0,0 km/h (0 Bft)
17.12.2013 18:00 6,5 C 3,5 C 85 % 1023,1 hPa 0,0 l/m 0,00 h 0,00 h 0,0 UV-I 0 W/m 0,0 km/h (0 Bft)
17.12.2013 19:00 5,3 C 2,9 C 87 % 1023,0 hPa 0,0 l/m 0,00 h 0,00 h 0,0 UV-I 0 W/m 0,0 km/h (0 Bft)
17.12.2013 20:00 4,7 C 3,0 C 91 % 1022,5 hPa 0,0 l/m 0,00 h 0,00 h 0,0 UV-I 0 W/m 1,0 km/h (0 Bft)
17.12.2013 21:00 4,9 C 3,3 C 91 % 1022,3 hPa 0,0 l/m 0,00 h 0,00 h 0,0 UV-I 0 W/m 1,9 km/h (1 Bft)
17.12.2013 22:00 4,6 C 2,8 C 90 % 1022,0 hPa 0,0 l/m 0,00 h 0,00 h 0,0 UV-I 0 W/m 0,1 km/h (0 Bft)
17.12.2013 23:00 4,1 C 2,8 C 90 % 1021,6 hPa 0,0 l/m 0,00 h 0,00 h 0,0 UV-I 0 W/m 5,3 km/h (1 Bft)
18.12.2013 00:00 4,2 C 2,8 C 90 % 1021,2 hPa 0,0 l/m 0,00 h 0,00 h 0,0 UV-I 0 W/m 0,3 km/h (0 Bft)
18.12.2013 01:00 4,2 C 2,8 C 89 % 1020,3 hPa 0,0 l/m 0,00 h 0,00 h 0,0 UV-I 0 W/m 6,9 km/h (2 Bft)
18.12.2013 02:00 4,6 C 3,2 C 89 % 1019,9 hPa 0,0 l/m 0,00 h 0,00 h 0,0 UV-I 0 W/m 12,7 km/h (3 Bft)
18.12.2013 03:00 4,9 C 3,5 C 88 % 1019,7 hPa 0,0 l/m 0,00 h 0,00 h 0,0 UV-I 0 W/m 12,2 km/h (2 Bft)
18.12.2013 04:00 4,9 C 3,5 C 88 % 1019,2 hPa 0,0 l/m 0,00 h 0,00 h 0,0 UV-I 0 W/m 14,2 km/h (3 Bft)
18.12.2013 05:00 4,9 C 3,8 C 88 % 1018,9 hPa 0,0 l/m 0,00 h 0,00 h 0,0 UV-I 0 W/m 14,9 km/h (3 Bft)
18.12.2013 06:00 5,2 C 4,0 C 88 % 1018,9 hPa 0,0 l/m 0,00 h 0,00 h 0,0 UV-I 0 W/m 10,4 km/h (2 Bft)
18.12.2013 07:00 5,6 C 4,4 C 89 % 1019,1 hPa 0,0 l/m 0,00 h 0,00 h 0,0 UV-I 0 W/m 6,8 km/h (2 Bft)
18.12.2013 08:00 6,2 C 5,1 C 90 % 1019,1 hPa 0,0 l/m 0,00 h 0,00 h 0,0 UV-I 5 W/m 6,4 km/h (2 Bft)
18.12.2013 09:00 6,9 C 5,9 C 90 % 1019,2 hPa 0,0 l/m 0,10 h 0,00 h 0,0 UV-I 37 W/m 1,5 km/h (1 Bft)
18.12.2013 10:00 9,3 C 8,0 C 85 % 1019,3 hPa 0,0 l/m 0,40 h 0,00 h 0,0 UV-I 108 W/m 13,0 km/h (3 Bft)
18.12.2013 11:00 10,1 C 8,8 C 82 % 1018,9 hPa 0,0 l/m 0,87 h 0,00 h 0,0 UV-I 175 W/m 14,7 km/h (3 Bft)
18.12.2013 12:00 9,9 C 8,9 C 81 % 1018,1 hPa 0,0 l/m 0,27 h 0,00 h 0,0 UV-I 137 W/m 14,3 km/h (3 Bft)
18.12.2013 13:00 9,7 C 8,7 C 81 % 1017,5 hPa 0,0 l/m 0,00 h 0,00 h 0,0 UV-I 113 W/m 11,6 km/h (2 Bft)
18.12.2013 14:00 10,0 C 8,8 C 80 % 1016,6 hPa 0,0 l/m 0,60 h 0,00 h 0,0 UV-I 120 W/m 8,5 km/h (2 Bft)
18.12.2013 15:00 9,4 C 7,9 C 82 % 1016,0 hPa 0,0 l/m 0,03 h 0,00 h 0,0 UV-I 43 W/m 8,2 km/h (2 Bft)
18.12.2013 16:00 8,7 C 6,4 C 84 % 1015,5 hPa 0,0 l/m 0,00 h 0,00 h 0,0 UV-I 15 W/m 1,0 km/h (0 Bft)
18.12.2013 17:00 7,7 C 5,0 C 86 % 1014,6 hPa 0,0 l/m 0,00 h 0,00 h 0,0 UV-I 0 W/m 4,3 km/h (1 Bft)
18.12.2013 18:00 7,0 C 5,1 C 88 % 1013,4 hPa 0,0 l/m 0,00 h 0,00 h 0,0 UV-I 0 W/m 13,4 km/h (3 Bft)
18.12.2013 19:00 7,3 C 5,7 C 91 % 1012,7 hPa 0,0 l/m 0,00 h 0,00 h 0,0 UV-I 0 W/m 15,3 km/h (3 Bft)
18.12.2013 20:00 7,3 C 5,6 C 91 % 1011,5 hPa 0,0 l/m 0,00 h 0,00 h 0,0 UV-I 0 W/m 15,5 km/h (3 Bft)
18.12.2013 21:00 7,2 C 5,5 C 92 % 1010,2 hPa 0,0 l/m 0,00 h 0,00 h 0,0 UV-I 0 W/m 20,3 km/h (4 Bft)
18.12.2013 22:00 7,6 C 5,8 C 89 % 1008,7 hPa 0,0 l/m 0,00 h 0,00 h 0,0 UV-I 0 W/m 19,3 km/h (3 Bft)
18.12.2013 23:00 6,9 C 5,1 C 90 % 1007,4 hPa 0,0 l/m 0,00 h 0,00 h 0,0 UV-I 0 W/m 17,6 km/h (3 Bft)
19.12.2013 00:00 6,9 C 5,6 C 91 % 1005,9 hPa 0,0 l/m 0,00 h 0,00 h 0,0 UV-I 0 W/m 23,5 km/h (4 Bft)
19.12.2013 01:00 7,3 C 5,9 C 90 % 1004,8 hPa 0,0 l/m 0,00 h 0,00 h 0,0 UV-I 0 W/m 24,9 km/h (4 Bft)
19.12.2013 02:00 7,6 C 6,0 C 90 % 1003,8 hPa 0,2 l/m 0,00 h 0,40 h 0,0 UV-I 0 W/m 18,4 km/h (3 Bft)
19.12.2013 03:00 7,6 C 5,8 C 93 % 1003,0 hPa 1,4 l/m 0,00 h 1,00 h 0,0 UV-I 0 W/m 10,8 km/h (2 Bft)
19.12.2013 04:00 8,0 C 6,5 C 96 % 1002,1 hPa 1,2 l/m 0,00 h 1,00 h 0,0 UV-I 0 W/m 15,4 km/h (3 Bft)
19.12.2013 05:00 8,2 C 6,7 C 97 % 1001,7 hPa 1,8 l/m 0,00 h 1,00 h 0,0 UV-I 0 W/m 17,9 km/h (3 Bft)
19.12.2013 06:00 8,2 C 6,7 C 98 % 1001,3 hPa 0,6 l/m 0,00 h 0,53 h 0,0 UV-I 0 W/m 16,3 km/h (3 Bft)
19.12.2013 07:00 8,4 C 6,7 C 96 % 1001,2 hPa 0,0 l/m 0,00 h 0,13 h 0,0 UV-I 0 W/m 12,0 km/h (2 Bft)
19.12.2013 08:00 9,0 C 7,1 C 95 % 1001,6 hPa 0,0 l/m 0,00 h 0,13 h 0,0 UV-I 0 W/m 15,2 km/h (3 Bft)
19.12.2013 09:00 9,5 C 7,3 C 92 % 1002,2 hPa 1,4 l/m 0,00 h 0,67 h 0,0 UV-I 6 W/m 15,0 km/h (3 Bft)
19.12.2013 10:00 8,8 C 6,9 C 94 % 1003,3 hPa 0,0 l/m 0,00 h 0,13 h 0,0 UV-I 44 W/m 16,0 km/h (3 Bft)
19.12.2013 11:00 9,6 C 7,6 C 90 % 1003,8 hPa 0,0 l/m 0,30 h 0,23 h 0,0 UV-I 106 W/m 19,7 km/h (3 Bft)
19.12.2013 12:00 8,4 C 6,5 C 90 % 1004,7 hPa 0,2 l/m 0,00 h 0,47 h 0,0 UV-I 69 W/m 14,5 km/h (3 Bft)
19.12.2013 13:00 8,6 C 6,9 C 89 % 1005,5 hPa 0,0 l/m 0,37 h 0,00 h 0,0 UV-I 118 W/m 13,6 km/h (3 Bft)
19.12.2013 14:00 8,5 C 6,9 C 88 % 1006,0 hPa 0,0 l/m 0,00 h 0,00 h 0,0 UV-I 46 W/m 7,9 km/h (2 Bft)
19.12.2013 15:00 8,4 C 6,7 C 88 % 1006,7 hPa 0,0 l/m 0,17 h 0,00 h 0,0 UV-I 27 W/m 0,5 km/h (0 Bft)
19.12.2013 16:00 7,8 C 5,3 C 89 % 1007,9 hPa 0,0 l/m 0,00 h 0,00 h 0,0 UV-I 12 W/m 0,8 km/h (0 Bft)
19.12.2013 17:00 6,8 C 4,1 C 89 % 1008,6 hPa 0,0 l/m 0,00 h 0,00 h 0,0 UV-I 0 W/m 0,4 km/h (0 Bft)
19.12.2013 18:00 6,0 C 3,5 C 92 % 1009,4 hPa 0,0 l/m 0,00 h 0,00 h 0,0 UV-I 0 W/m 0,6 km/h (0 Bft)
19.12.2013 19:00 5,5 C 3,8 C 93 % 1010,2 hPa 0,0 l/m 0,00 h 0,00 h 0,0 UV-I 0 W/m 3,4 km/h (1 Bft)
19.12.2013 20:00 5,3 C 3,3 C 94 % 1010,7 hPa 0,0 l/m 0,00 h 0,00 h 0,0 UV-I 0 W/m 0,9 km/h (0 Bft)
19.12.2013 21:00 4,7 C 2,6 C 94 % 1011,7 hPa 0,0 l/m 0,00 h 0,00 h 0,0 UV-I 0 W/m 0,3 km/h (0 Bft)
19.12.2013 22:00 4,0 C 1,9 C 94 % 1012,2 hPa 0,0 l/m 0,00 h 0,00 h 0,0 UV-I 0 W/m 0,4 km/h (0 Bft)
19.12.2013 23:00 3,2 C 1,1 C 95 % 1012,1 hPa 0,0 l/m 0,00 h 0,00 h 0,0 UV-I 0 W/m 0,9 km/h (0 Bft)
20.12.2013 00:00 2,6 C 0,8 C 95 % 1012,8 hPa 0,0 l/m 0,00 h 0,00 h 0,0 UV-I 0 W/m 0,4 km/h (0 Bft)
20.12.2013 01:00 2,2 C 0,6 C 96 % 1013,7 hPa 0,0 l/m 0,00 h 0,00 h 0,0 UV-I 0 W/m 0,9 km/h (0 Bft)
20.12.2013 02:00 2,0 C 0,7 C 96 % 1014,7 hPa 0,0 l/m 0,00 h 0,00 h 0,0 UV-I 0 W/m 1,1 km/h (1 Bft)
20.12.2013 03:00 1,9 C 0,7 C 97 % 1015,1 hPa 0,0 l/m 0,00 h 0,00 h 0,0 UV-I 0 W/m 0,6 km/h (0 Bft)
20.12.2013 04:00 1,8 C 0,7 C 97 % 1015,1 hPa 0,0 l/m 0,00 h 0,00 h 0,0 UV-I 0 W/m 0,0 km/h (0 Bft)
20.12.2013 05:00 2,4 C 1,6 C 97 % 1015,8 hPa 0,0 l/m 0,00 h 0,00 h 0,0 UV-I 0 W/m 4,4 km/h (1 Bft)
20.12.2013 06:00 2,9 C 2,1 C 98 % 1016,6 hPa 0,0 l/m 0,00 h 0,00 h 0,0 UV-I 0 W/m 1,5 km/h (1 Bft)
20.12.2013 07:00 4,1 C 3,3 C 98 % 1017,5 hPa 0,0 l/m 0,00 h 0,00 h 0,0 UV-I 0 W/m 6,5 km/h (2 Bft)
20.12.2013 08:00 4,7 C 3,8 C 98 % 1018,8 hPa 0,0 l/m 0,00 h 0,00 h 0,0 UV-I 0 W/m 6,9 km/h (2 Bft)
20.12.2013 09:00 5,2 C 4,1 C 96 % 1020,4 hPa 0,0 l/m 0,00 h 0,00 h 0,0 UV-I 12 W/m 10,9 km/h (2 Bft)
20.12.2013 10:00 5,3 C 4,0 C 92 % 1021,7 hPa 0,0 l/m 0,80 h 0,00 h 0,0 UV-I 113 W/m 8,0 km/h (2 Bft)
20.12.2013 11:00 6,1 C 4,6 C 89 % 1022,4 hPa 0,0 l/m 0,97 h 0,00 h 0,0 UV-I 179 W/m 11,0 km/h (2 Bft)
20.12.2013 12:00 7,1 C 5,6 C 84 % 1022,8 hPa 0,0 l/m 0,97 h 0,00 h 0,0 UV-I 213 W/m 13,1 km/h (3 Bft)
20.12.2013 13:00 7,7 C 6,1 C 80 % 1023,6 hPa 0,0 l/m 0,97 h 0,00 h 0,0 UV-I 199 W/m 18,1 km/h (3 Bft)
20.12.2013 14:00 7,9 C 6,1 C 79 % 1024,2 hPa 0,0 l/m 0,83 h 0,00 h 0,0 UV-I 128 W/m 13,0 km/h (3 Bft)
20.12.2013 15:00 7,5 C 5,6 C 80 % 1025,1 hPa 0,0 l/m 0,00 h 0,00 h 0,0 UV-I 26 W/m 11,4 km/h (2 Bft)
20.12.2013 16:00 6,7 C 4,8 C 82 % 1026,2 hPa 0,0 l/m 0,00 h 0,00 h 0,0 UV-I 9 W/m 7,9 km/h (2 Bft)
20.12.2013 17:00 6,0 C 4,1 C 86 % 1026,8 hPa 0,0 l/m 0,00 h 0,00 h 0,0 UV-I 0 W/m 5,4 km/h (1 Bft)
20.12.2013 18:00 5,7 C 3,9 C 87 % 1027,1 hPa 0,0 l/m 0,00 h 0,00 h 0,0 UV-I 0 W/m 11,7 km/h (2 Bft)
20.12.2013 19:00 5,3 C 3,8 C 88 % 1027,4 hPa 0,0 l/m 0,00 h 0,00 h 0,0 UV-I 0 W/m 11,9 km/h (2 Bft)
20.12.2013 20:00 5,0 C 3,3 C 88 % 1027,6 hPa 0,0 l/m 0,00 h 0,00 h 0,0 UV-I 0 W/m 8,7 km/h (2 Bft)
20.12.2013 21:00 4,8 C 3,1 C 88 % 1027,8 hPa 0,0 l/m 0,00 h 0,00 h 0,0 UV-I 0 W/m 8,8 km/h (2 Bft)
20.12.2013 22:00 4,2 C 2,4 C 89 % 1028,0 hPa 0,0 l/m 0,00 h 0,00 h 0,0 UV-I 0 W/m 7,0 km/h (2 Bft)
20.12.2013 23:00 4,9 C 3,3 C 88 % 1027,8 hPa 0,0 l/m 0,00 h 0,00 h 0,0 UV-I 0 W/m 16,0 km/h (3 Bft)
21.12.2013 00:00 4,7 C 2,9 C 87 % 1027,8 hPa 0,0 l/m 0,00 h 0,00 h 0,0 UV-I 0 W/m 11,7 km/h (2 Bft)
21.12.2013 01:00 4,5 C 3,0 C 87 % 1027,5 hPa 0,0 l/m 0,00 h 0,00 h 0,0 UV-I 0 W/m 11,9 km/h (2 Bft)
21.12.2013 02:00 5,3 C 3,8 C 83 % 1027,1 hPa 0,0 l/m 0,00 h 0,00 h 0,0 UV-I 0 W/m 15,4 km/h (3 Bft)
21.12.2013 03:00 5,7 C 4,4 C 80 % 1027,0 hPa 0,0 l/m 0,00 h 0,00 h 0,0 UV-I 0 W/m 16,8 km/h (3 Bft)
21.12.2013 04:00 6,0 C 4,4 C 79 % 1026,8 hPa 0,0 l/m 0,00 h 0,00 h 0,0 UV-I 0 W/m 19,2 km/h (3 Bft)
21.12.2013 05:00 6,2 C 4,4 C 80 % 1026,2 hPa 0,0 l/m 0,00 h 0,00 h 0,0 UV-I 0 W/m 15,8 km/h (3 Bft)
21.12.2013 06:00 6,1 C 4,5 C 81 % 1025,7 hPa 0,0 l/m 0,00 h 0,00 h 0,0 UV-I 0 W/m 14,5 km/h (3 Bft)
21.12.2013 07:00 6,4 C 5,0 C 80 % 1025,4 hPa 0,0 l/m 0,00 h 0,00 h 0,0 UV-I 0 W/m 15,3 km/h (3 Bft)
21.12.2013 08:00 6,6 C 5,0 C 79 % 1025,4 hPa 0,0 l/m 0,00 h 0,00 h 0,0 UV-I 6 W/m 15,8 km/h (3 Bft)
21.12.2013 09:00 6,7 C 5,2 C 78 % 1025,1 hPa 0,0 l/m 0,00 h 0,00 h 0,0 UV-I 20 W/m 17,3 km/h (3 Bft)
21.12.2013 10:00 7,3 C 6,0 C 77 % 1025,2 hPa 0,0 l/m 0,00 h 0,00 h 0,0 UV-I 63 W/m 17,3 km/h (3 Bft)
21.12.2013 11:00 7,9 C 6,7 C 73 % 1024,9 hPa 0,0 l/m 0,00 h 0,00 h 0,0 UV-I 81 W/m 21,8 km/h (4 Bft)
21.12.2013 12:00 7,9 C 6,7 C 73 % 1024,1 hPa 0,0 l/m 0,00 h 0,00 h 0,0 UV-I 68 W/m 25,0 km/h (4 Bft)
21.12.2013 13:00 7,9 C 6,7 C 72 % 1023,2 hPa 0,0 l/m 0,00 h 0,00 h 0,0 UV-I 55 W/m 20,3 km/h (4 Bft)
21.12.2013 14:00 7,9 C 6,6 C 71 % 1022,5 hPa 0,0 l/m 0,00 h 0,00 h 0,0 UV-I 39 W/m 20,7 km/h (4 Bft)
21.12.2013 15:00 7,7 C 6,1 C 70 % 1021,8 hPa 0,0 l/m 0,00 h 0,00 h 0,0 UV-I 16 W/m 26,0 km/h (4 Bft)
21.12.2013 16:00 7,4 C 5,6 C 70 % 1021,6 hPa 0,0 l/m 0,00 h 0,00 h 0,0 UV-I 7 W/m 16,9 km/h (3 Bft)
21.12.2013 17:00 7,0 C 5,1 C 71 % 1021,0 hPa 0,0 l/m 0,00 h 0,00 h 0,0 UV-I 0 W/m 17,4 km/h (3 Bft)
21.12.2013 18:00 6,7 C 5,0 C 73 % 1020,0 hPa 0,0 l/m 0,00 h 0,00 h 0,0 UV-I 0 W/m 19,8 km/h (3 Bft)
21.12.2013 19:00 6,7 C 4,9 C 70 % 1019,1 hPa 0,0 l/m 0,00 h 0,00 h 0,0 UV-I 0 W/m 17,0 km/h (3 Bft)
21.12.2013 20:00 6,2 C 4,6 C 70 % 1018,3 hPa 0,0 l/m 0,00 h 0,03 h 0,0 UV-I 0 W/m 15,9 km/h (3 Bft)
21.12.2013 21:00 6,7 C 5,2 C 67 % 1017,4 hPa 0,0 l/m 0,00 h 0,03 h 0,0 UV-I 0 W/m 16,3 km/h (3 Bft)
21.12.2013 22:00 7,2 C 5,2 C 63 % 1017,0 hPa 0,0 l/m 0,00 h 0,33 h 0,0 UV-I 0 W/m 16,7 km/h (3 Bft)
21.12.2013 23:00 7,2 C 4,9 C 70 % 1016,9 hPa 0,0 l/m 0,00 h 0,37 h 0,0 UV-I 0 W/m 17,2 km/h (3 Bft)
22.12.2013 00:00 7,3 C 5,3 C 79 % 1016,5 hPa 0,2 l/m 0,00 h 0,60 h 0,0 UV-I 0 W/m 21,6 km/h (4 Bft)
22.12.2013 01:00 6,5 C 4,4 C 89 % 1016,2 hPa 0,4 l/m 0,00 h 0,40 h 0,0 UV-I 0 W/m 15,2 km/h (3 Bft)
22.12.2013 02:00 6,2 C 4,0 C 90 % 1016,4 hPa 0,4 l/m 0,00 h 0,37 h 0,0 UV-I 0 W/m 14,8 km/h (3 Bft)
22.12.2013 03:00 6,4 C 4,4 C 87 % 1016,7 hPa 0,0 l/m 0,00 h 0,00 h 0,0 UV-I 0 W/m 21,4 km/h (4 Bft)
22.12.2013 04:00 6,6 C 4,6 C 87 % 1016,7 hPa 0,2 l/m 0,00 h 0,43 h 0,0 UV-I 0 W/m 19,2 km/h (3 Bft)
22.12.2013 05:00 6,3 C 4,4 C 91 % 1016,6 hPa 0,0 l/m 0,00 h 0,00 h 0,0 UV-I 0 W/m 15,6 km/h (3 Bft)
22.12.2013 06:00 6,9 C 5,1 C 90 % 1016,4 hPa 0,0 l/m 0,00 h 0,00 h 0,0 UV-I 0 W/m 15,9 km/h (3 Bft)
22.12.2013 07:00 7,3 C 5,6 C 90 % 1015,9 hPa 0,0 l/m 0,00 h 0,00 h 0,0 UV-I 0 W/m 14,9 km/h (3 Bft)
22.12.2013 08:00 7,4 C 5,6 C 90 % 1015,7 hPa 0,2 l/m 0,00 h 0,77 h 0,0 UV-I 7 W/m 10,9 km/h (2 Bft)
22.12.2013 09:00 7,4 C 5,6 C 93 % 1015,7 hPa 0,0 l/m 0,00 h 0,30 h 0,0 UV-I 15 W/m 11,6 km/h (2 Bft)
22.12.2013 10:00 7,9 C 6,4 C 93 % 1015,3 hPa 0,0 l/m 0,00 h 0,00 h 0,0 UV-I 34 W/m 12,2 km/h (3 Bft)
22.12.2013 11:00 8,8 C 7,1 C 90 % 1014,8 hPa 0,0 l/m 0,00 h 0,00 h 0,0 UV-I 39 W/m 14,9 km/h (3 Bft)
22.12.2013 12:00 9,6 C 8,0 C 86 % 1013,9 hPa 0,0 l/m 0,00 h 0,00 h 0,0 UV-I 39 W/m 22,0 km/h (4 Bft)
22.12.2013 13:00 9,7 C 8,0 C 86 % 1013,1 hPa 0,0 l/m 0,00 h 0,30 h 0,0 UV-I 27 W/m 21,3 km/h (4 Bft)
22.12.2013 14:00 9,4 C 7,8 C 89 % 1012,6 hPa 0,0 l/m 0,00 h 0,17 h 0,0 UV-I 28 W/m 22,0 km/h (4 Bft)
22.12.2013 15:00 9,6 C 8,3 C 87 % 1012,0 hPa 0,0 l/m 0,07 h 0,00 h 0,0 UV-I 36 W/m 27,3 km/h (4 Bft)
22.12.2013 16:00 9,9 C 8,3 C 85 % 1011,9 hPa 0,0 l/m 0,00 h 0,03 h 0,0 UV-I 12 W/m 26,4 km/h (4 Bft)
22.12.2013 17:00 10,0 C 8,3 C 85 % 1012,1 hPa 0,0 l/m 0,00 h 0,40 h 0,0 UV-I 0 W/m 25,8 km/h (4 Bft)
22.12.2013 18:00 9,1 C 6,8 C 89 % 1012,4 hPa 2,4 l/m 0,00 h 0,90 h 0,0 UV-I 0 W/m 21,7 km/h (4 Bft)
22.12.2013 19:00 8,0 C 6,1 C 93 % 1012,6 hPa 4,0 l/m 0,00 h 1,00 h 0,0 UV-I 0 W/m 19,7 km/h (3 Bft)
22.12.2013 20:00 7,6 C 5,9 C 95 % 1012,6 hPa 1,4 l/m 0,00 h 0,87 h 0,0 UV-I 0 W/m 14,0 km/h (3 Bft)
22.12.2013 21:00 7,3 C 5,6 C 95 % 1012,8 hPa 0,0 l/m 0,00 h 0,23 h 0,0 UV-I 0 W/m 12,9 km/h (3 Bft)
22.12.2013 22:00 7,3 C 5,6 C 94 % 1013,3 hPa 0,0 l/m 0,00 h 0,00 h 0,0 UV-I 0 W/m 13,3 km/h (3 Bft)
22.12.2013 23:00 7,1 C 5,3 C 92 % 1014,1 hPa 0,0 l/m 0,00 h 0,00 h 0,0 UV-I 0 W/m 13,1 km/h (3 Bft)
Min-Datum _ 20.12.13 16.12.13 21.12.13 19.12.13 - - - - - 16.12.13
_ Min-Zeit 04:26 06:52 22:08 07:00 - - - - - 01:10
Minimum _ 1,7 C 0,6 C 62 % 1001,0 hPa - - - - - 0,0 km/h (0 Bft)
Max-Datum _ 18.12.13 18.12.13 19.12.13 20.12.13 22.12.13 16.12.13 19.12.13 16.12.13 19.12.13 22.12.13
_ Max-Zeit 11:36 14:30 05:40 22:24 19:00 10:00 02:32 00:00 11:42 17:04
Maximum _ 10,2 C 9,4 C 100 % 1028,2 hPa 4,0 l/m 0,03 h 0,03 h 0,0 UV-I 258 W/m 54,1 km/h
S (7 Bft)
Durchschnitt _ 6,5 C 4,8 C 86 % 1018,3 hPa #16,0 l/m #11:22 h #13:14 h 0,0 UV-I 64 W/m 11,4 km/h (2 Bft)
© 2013 W. Hausmann